createdAt,value
2022-10-26T00:00:24.352Z,7.57
2022-10-26T00:02:52.001Z,7.55
2022-10-26T00:05:19.416Z,9.57
2022-10-26T00:07:46.689Z,7.25
2022-10-26T00:10:13.910Z,6.18
2022-10-26T00:12:41.065Z,5.85
2022-10-26T00:15:08.561Z,6.25
2022-10-26T00:17:36.088Z,6.68
2022-10-26T00:20:03.234Z,7.00
2022-10-26T00:22:30.362Z,7.30
2022-10-26T00:24:57.547Z,7.15
2022-10-26T00:27:24.704Z,9.90
2022-10-26T00:29:51.860Z,9.38
2022-10-26T00:32:19.014Z,7.35
2022-10-26T00:34:46.211Z,6.00
2022-10-26T00:37:13.538Z,8.50
2022-10-26T00:39:40.660Z,5.75
2022-10-26T00:42:07.801Z,6.25
2022-10-26T00:44:50.066Z,7.95
2022-10-26T00:47:26.330Z,7.25
2022-10-26T00:49:54.629Z,7.90
2022-10-26T00:52:22.329Z,6.05
2022-10-26T00:54:49.544Z,8.25
2022-10-26T00:57:17.452Z,5.63
2022-10-26T00:59:45.494Z,6.65
2022-10-26T01:02:13.259Z,7.50
2022-10-26T01:04:40.397Z,5.85
2022-10-26T01:07:08.449Z,6.32
2022-10-26T01:09:36.897Z,8.07
2022-10-26T01:12:04.121Z,6.47
2022-10-26T01:14:31.922Z,6.63
2022-10-26T01:19:39.985Z,5.07
2022-10-26T01:22:13.266Z,6.13
2022-10-26T01:24:59.372Z,5.82
2022-10-26T01:27:29.998Z,6.93
2022-10-26T01:30:00.004Z,4.78
2022-10-26T01:32:27.295Z,8.73
2022-10-26T01:34:54.408Z,7.75
2022-10-26T01:37:27.916Z,5.45
2022-10-26T01:40:01.092Z,5.18
2022-10-26T01:42:29.203Z,4.85
2022-10-26T01:45:02.272Z,5.97
2022-10-26T01:47:30.996Z,6.18
2022-10-26T01:49:59.979Z,5.38
2022-10-26T01:52:30.352Z,5.57
2022-10-26T01:55:04.405Z,5.57
2022-10-26T01:57:33.869Z,5.80
2022-10-26T02:00:06.730Z,9.73
2022-10-26T02:02:43.539Z,5.65
2022-10-26T02:05:29.642Z,5.43
2022-10-26T02:07:57.621Z,8.38
2022-10-26T02:10:43.297Z,6.13
2022-10-26T02:13:30.297Z,4.88
2022-10-26T02:15:57.408Z,4.60
2022-10-26T02:18:41.938Z,5.05
2022-10-26T02:21:13.185Z,5.07
2022-10-26T02:23:42.863Z,6.22
2022-10-26T02:26:11.554Z,4.35
2022-10-26T02:28:40.813Z,6.13
2022-10-26T02:31:08.421Z,6.68
2022-10-26T02:33:39.076Z,4.45
2022-10-26T02:36:08.237Z,6.00
2022-10-26T02:38:36.432Z,4.60
2022-10-26T02:41:04.005Z,4.78
2022-10-26T02:43:33.635Z,6.93
2022-10-26T02:46:03.576Z,6.47
2022-10-26T02:48:30.807Z,6.65
2022-10-26T02:51:03.264Z,4.50
2022-10-26T02:53:33.479Z,5.90
2022-10-26T02:56:03.692Z,4.53
2022-10-26T02:58:32.913Z,5.25
2022-10-26T03:01:00.228Z,4.43
2022-10-26T03:03:27.390Z,5.22
2022-10-26T03:05:54.583Z,5.18
2022-10-26T03:08:21.779Z,5.32
2022-10-26T03:10:48.964Z,7.25
2022-10-26T03:13:16.134Z,4.30
2022-10-26T03:15:43.321Z,11.95
2022-10-26T03:18:10.509Z,4.18
2022-10-26T03:20:37.634Z,4.47
2022-10-26T03:23:04.837Z,4.97
2022-10-26T03:25:32.035Z,5.00
2022-10-26T03:28:00.156Z,5.28
2022-10-26T03:30:27.512Z,4.25
2022-10-26T03:32:54.776Z,4.30
2022-10-26T03:35:21.981Z,6.25
2022-10-26T03:37:49.466Z,4.53
2022-10-26T03:40:16.923Z,4.38
2022-10-26T03:42:44.088Z,5.38
2022-10-26T03:45:11.405Z,5.05
2022-10-26T03:47:45.547Z,4.95
2022-10-26T03:50:13.584Z,4.80
2022-10-26T03:52:40.949Z,5.25
2022-10-26T03:55:08.447Z,4.57
2022-10-26T03:57:35.608Z,5.60
2022-10-26T04:00:03.413Z,5.70
2022-10-26T04:02:30.569Z,5.90
2022-10-26T04:04:57.716Z,4.70
2022-10-26T04:07:24.828Z,4.38
2022-10-26T04:09:51.993Z,5.10
2022-10-26T04:12:19.115Z,4.03
2022-10-26T04:14:46.257Z,3.55
2022-10-26T04:17:13.390Z,3.85
2022-10-26T04:19:40.511Z,4.28
2022-10-26T04:22:07.630Z,6.97
2022-10-26T04:24:34.786Z,3.97
2022-10-26T04:27:01.922Z,5.63
2022-10-26T04:29:29.060Z,4.10
2022-10-26T04:31:56.275Z,4.15
2022-10-26T04:34:23.428Z,4.15
2022-10-26T04:36:50.604Z,4.32
2022-10-26T04:39:17.858Z,4.22
2022-10-26T04:41:45.006Z,4.85
2022-10-26T04:44:17.948Z,6.55
2022-10-26T04:46:45.149Z,7.00
2022-10-26T04:49:13.538Z,4.85
2022-10-26T04:51:40.655Z,4.22
2022-10-26T04:54:07.825Z,4.28
2022-10-26T04:56:35.091Z,4.63
2022-10-26T04:59:02.477Z,3.63
2022-10-26T05:01:29.787Z,5.10
2022-10-26T05:03:57.068Z,10.23
2022-10-26T05:06:24.589Z,3.90
2022-10-26T05:08:51.705Z,5.30
2022-10-26T05:11:18.837Z,3.63
2022-10-26T05:13:48.673Z,4.22
2022-10-26T05:16:19.092Z,4.28
2022-10-26T05:18:49.526Z,4.00
2022-10-26T05:21:20.377Z,3.83
2022-10-26T05:23:52.421Z,4.18
2022-10-26T05:26:19.637Z,4.13
2022-10-26T05:28:46.821Z,4.47
2022-10-26T05:31:13.929Z,4.35
2022-10-26T05:33:41.104Z,3.90
2022-10-26T05:36:08.384Z,10.00
2022-10-26T05:38:35.616Z,4.75
2022-10-26T05:41:02.800Z,5.75
2022-10-26T05:43:30.351Z,5.10
2022-10-26T05:45:57.546Z,6.47
2022-10-26T05:48:24.816Z,5.50
2022-10-26T05:50:52.153Z,4.85
2022-10-26T05:53:19.808Z,7.32
2022-10-26T05:55:47.059Z,6.32
2022-10-26T05:58:15.415Z,5.07
2022-10-26T06:00:50.729Z,6.65
2022-10-26T06:03:17.934Z,10.63
2022-10-26T06:05:54.292Z,4.72
2022-10-26T06:08:22.494Z,6.25
2022-10-26T06:10:50.164Z,4.95
2022-10-26T06:13:17.655Z,5.18
2022-10-26T06:15:54.582Z,4.63
2022-10-26T06:18:36.654Z,10.50
2022-10-26T06:21:03.773Z,12.35
2022-10-26T06:24:03.497Z,12.68
2022-10-26T06:26:35.269Z,9.95
2022-10-26T06:29:02.368Z,9.45
2022-10-26T06:31:29.552Z,7.90
2022-10-26T06:33:59.105Z,12.50
2022-10-26T06:36:27.503Z,8.55
2022-10-26T06:39:06.004Z,9.30
2022-10-26T06:41:33.924Z,11.07
2022-10-26T06:44:02.659Z,8.50
2022-10-26T06:46:49.876Z,10.38
2022-10-26T06:49:26.006Z,10.60
2022-10-26T06:51:59.094Z,9.57
2022-10-26T06:54:28.978Z,8.70
2022-10-26T06:56:56.700Z,10.60
2022-10-26T06:59:42.373Z,11.30
2022-10-26T07:02:10.657Z,11.93
2022-10-26T07:04:37.950Z,11.02
2022-10-26T07:07:05.341Z,10.95
2022-10-26T07:09:32.573Z,8.90
2022-10-26T07:11:59.778Z,12.50
2022-10-26T07:14:26.958Z,12.88
2022-10-26T07:16:54.512Z,10.48
2022-10-26T07:19:21.658Z,11.25
2022-10-26T07:21:48.790Z,14.50
2022-10-26T07:24:15.927Z,15.13
2022-10-26T07:26:43.088Z,12.60
2022-10-26T07:29:10.549Z,12.90
2022-10-26T07:31:37.709Z,11.82
2022-10-26T07:34:04.847Z,10.10
2022-10-26T07:36:32.050Z,9.02
2022-10-26T07:38:59.256Z,10.38
2022-10-26T07:41:26.376Z,10.52
2022-10-26T07:43:53.528Z,12.98
2022-10-26T07:46:21.105Z,12.07
2022-10-26T07:48:48.315Z,11.77
2022-10-26T07:51:15.671Z,10.50
2022-10-26T07:53:42.845Z,10.00
2022-10-26T07:56:10.933Z,15.23
2022-10-26T07:58:38.325Z,12.55
2022-10-26T08:01:07.409Z,16.67
2022-10-26T08:03:34.676Z,9.73
2022-10-26T08:06:02.854Z,14.82
2022-10-26T08:08:30.047Z,12.10
2022-10-26T08:10:57.285Z,19.88
2022-10-26T08:13:24.416Z,17.55
2022-10-26T08:15:51.591Z,15.38
2022-10-26T08:18:18.736Z,11.23
2022-10-26T08:20:46.159Z,11.00
2022-10-26T08:23:13.708Z,15.15
2022-10-26T08:25:40.862Z,12.63
2022-10-26T08:28:08.049Z,17.75
2022-10-26T08:33:08.341Z,14.20
2022-10-26T08:35:35.735Z,16.90
2022-10-26T08:38:02.908Z,19.55
2022-10-26T08:40:33.814Z,14.70
2022-10-26T08:43:21.236Z,15.55
2022-10-26T08:45:51.648Z,13.77
2022-10-26T08:48:21.132Z,19.20
2022-10-26T08:50:51.968Z,17.63
2022-10-26T08:53:19.144Z,14.77
2022-10-26T08:55:48.555Z,19.85
2022-10-26T08:58:19.319Z,20.00
2022-10-26T09:00:48.032Z,26.88
2022-10-26T09:03:16.007Z,22.80
2022-10-26T09:05:43.150Z,15.38
2022-10-26T09:08:15.261Z,21.02
2022-10-26T09:10:52.115Z,17.88
2022-10-26T09:13:37.800Z,17.25
2022-10-26T09:16:37.521Z,16.98
2022-10-26T09:19:08.781Z,19.50
2022-10-26T09:21:42.297Z,19.45
2022-10-26T09:24:17.946Z,16.90
2022-10-26T09:26:48.064Z,16.63
2022-10-26T09:29:15.444Z,18.00
2022-10-26T09:31:44.093Z,19.95
2022-10-26T09:34:40.699Z,17.30
2022-10-26T09:39:40.927Z,19.13
2022-10-26T09:42:19.991Z,13.73
2022-10-26T09:44:57.944Z,13.30
2022-10-26T09:47:36.582Z,16.60
2022-10-26T09:50:14.856Z,15.25
2022-10-26T09:52:42.059Z,22.17
2022-10-26T09:55:12.166Z,20.27
2022-10-26T09:57:40.860Z,27.02
2022-10-26T10:00:12.882Z,19.15
2022-10-26T10:02:43.969Z,15.48
2022-10-26T10:05:39.062Z,22.15
2022-10-26T10:08:20.697Z,22.88
2022-10-26T10:10:59.182Z,17.67
2022-10-26T10:13:28.445Z,27.42
2022-10-26T10:15:57.781Z,21.58
2022-10-26T10:18:25.196Z,27.63
2022-10-26T10:20:53.713Z,24.52
2022-10-26T10:23:41.080Z,26.90
2022-10-26T10:26:11.745Z,34.72
2022-10-26T10:28:39.231Z,115.25
2022-10-26T10:31:07.653Z,153.98
2022-10-26T10:33:36.318Z,124.53
2022-10-26T10:36:04.784Z,111.05
2022-10-26T10:38:37.477Z,120.70
2022-10-26T10:41:05.235Z,96.20
2022-10-26T10:43:32.676Z,107.20
2022-10-26T10:46:00.114Z,109.88
2022-10-26T10:48:28.948Z,89.18
2022-10-26T10:50:59.233Z,82.28
2022-10-26T10:53:44.475Z,84.63
2022-10-26T10:56:11.830Z,85.17
2022-10-26T10:59:05.129Z,97.00
2022-10-26T11:01:37.046Z,92.18
2022-10-26T11:04:04.405Z,80.50
2022-10-26T11:06:32.505Z,77.20
2022-10-26T11:09:08.460Z,79.38
2022-10-26T11:11:35.704Z,85.35
2022-10-26T11:14:20.823Z,62.38
2022-10-26T11:16:53.116Z,81.10
2022-10-26T11:19:25.722Z,55.45
2022-10-26T11:21:56.012Z,59.10
2022-10-26T11:24:26.018Z,57.70
2022-10-26T11:26:56.245Z,67.70
2022-10-26T11:29:27.454Z,62.25
2022-10-26T11:31:58.469Z,56.45
2022-10-26T11:34:30.776Z,55.75
2022-10-26T11:37:16.797Z,50.85
2022-10-26T11:39:46.032Z,57.80
2022-10-26T11:42:18.969Z,60.38
2022-10-26T11:44:53.201Z,56.35
2022-10-26T11:47:41.599Z,47.63
2022-10-26T11:50:17.686Z,57.60
2022-10-26T11:52:44.995Z,49.72
2022-10-26T11:55:12.345Z,58.20
2022-10-26T11:57:39.622Z,53.15
2022-10-26T12:00:17.106Z,49.55
2022-10-26T12:02:47.824Z,46.42
2022-10-26T12:05:18.110Z,41.80
2022-10-26T12:07:57.358Z,47.78
2022-10-26T12:10:29.603Z,39.70
2022-10-26T12:13:08.231Z,42.53
2022-10-26T12:18:55.949Z,44.08
2022-10-26T12:21:25.989Z,34.63
2022-10-26T12:24:11.741Z,35.38
2022-10-26T12:26:40.016Z,39.08
2022-10-26T12:29:07.516Z,35.95
2022-10-26T12:31:37.543Z,35.42
2022-10-26T12:34:05.589Z,33.88
2022-10-26T12:36:51.346Z,42.35
2022-10-26T12:39:35.308Z,33.40
2022-10-26T12:42:05.548Z,32.83
2022-10-26T12:44:35.752Z,33.20
2022-10-26T12:47:03.029Z,38.03
2022-10-26T12:49:49.120Z,33.67
2022-10-26T12:52:23.504Z,28.83
2022-10-26T12:54:57.985Z,34.38
2022-10-26T12:57:29.273Z,37.42
2022-10-26T13:00:02.547Z,31.15
2022-10-26T13:02:38.947Z,29.45
2022-10-26T13:05:24.793Z,29.92
2022-10-26T13:07:52.137Z,27.25
2022-10-26T13:10:21.541Z,33.28
2022-10-26T13:12:58.963Z,26.67
2022-10-26T13:15:39.745Z,31.50
2022-10-26T13:18:06.893Z,24.83
2022-10-26T13:20:35.402Z,22.23
2022-10-26T13:23:03.555Z,26.08
2022-10-26T13:25:31.662Z,22.27
2022-10-26T13:27:58.817Z,25.27
2022-10-26T13:30:35.293Z,25.27
2022-10-26T13:33:03.851Z,20.30
2022-10-26T13:35:32.191Z,21.13
2022-10-26T13:38:00.926Z,23.98
2022-10-26T13:40:29.517Z,19.48
2022-10-26T13:42:58.234Z,25.02
2022-10-26T13:45:30.389Z,26.88
2022-10-26T13:48:08.478Z,22.60
2022-10-26T13:50:45.564Z,47.08
2022-10-26T13:53:19.978Z,40.78
2022-10-26T13:56:02.909Z,47.92
2022-10-26T13:58:34.645Z,37.67
2022-10-26T14:01:13.077Z,38.85
2022-10-26T14:03:40.789Z,48.00
2022-10-26T14:06:28.385Z,50.17
2022-10-26T14:08:57.658Z,45.42
2022-10-26T14:11:31.807Z,32.30
2022-10-26T14:13:58.985Z,37.63
2022-10-26T14:16:28.403Z,45.80
2022-10-26T14:18:55.676Z,34.28
2022-10-26T14:21:23.445Z,29.98
2022-10-26T14:23:52.329Z,37.50
2022-10-26T14:26:20.892Z,28.08
2022-10-26T14:28:51.884Z,29.58
2022-10-26T14:31:21.970Z,32.00
2022-10-26T14:33:49.149Z,31.65
2022-10-26T14:36:17.718Z,32.00
2022-10-26T14:38:47.584Z,23.75
2022-10-26T14:41:16.719Z,32.35
2022-10-26T14:43:44.826Z,30.48
2022-10-26T14:46:16.644Z,26.20
2022-10-26T14:48:57.271Z,26.92
2022-10-26T14:51:31.842Z,27.48
2022-10-26T14:54:07.759Z,26.88
2022-10-26T14:56:38.137Z,35.50
2022-10-26T14:59:12.768Z,29.15
2022-10-26T15:01:54.007Z,23.15
2022-10-26T15:04:47.726Z,19.90
2022-10-26T15:07:21.055Z,24.90
2022-10-26T15:09:48.443Z,18.95
2022-10-26T15:12:35.889Z,23.63
2022-10-26T15:17:57.332Z,24.38
2022-10-26T15:20:25.673Z,20.27
2022-10-26T15:22:54.427Z,24.23
2022-10-26T15:25:23.257Z,19.33
2022-10-26T15:27:51.892Z,21.50
2022-10-26T15:30:24.424Z,21.45
2022-10-26T15:32:52.726Z,23.17
2022-10-26T15:35:20.081Z,22.73
2022-10-26T15:37:48.216Z,20.42
2022-10-26T15:40:15.841Z,20.80
2022-10-26T15:42:45.313Z,16.85
2022-10-26T15:45:18.565Z,15.70
2022-10-26T15:47:47.146Z,16.15
2022-10-26T15:50:15.450Z,14.65
2022-10-26T15:52:45.343Z,19.35
2022-10-26T15:55:15.732Z,17.20
2022-10-26T15:57:43.002Z,19.48
2022-10-26T16:00:15.308Z,16.75
2022-10-26T16:02:43.071Z,24.70
2022-10-26T16:05:12.193Z,19.90
2022-10-26T16:07:40.995Z,18.58
2022-10-26T16:10:10.217Z,23.58
2022-10-26T16:12:37.384Z,23.05
2022-10-26T16:15:08.612Z,19.60
2022-10-26T16:17:35.773Z,22.00
2022-10-26T16:20:08.009Z,22.02
2022-10-26T16:22:38.329Z,18.38
2022-10-26T16:25:05.976Z,19.15
2022-10-26T16:27:33.134Z,15.70
2022-10-26T16:30:00.278Z,20.65
2022-10-26T16:32:27.444Z,18.65
2022-10-26T16:34:54.577Z,16.83
2022-10-26T16:37:21.727Z,25.35
2022-10-26T16:39:48.886Z,18.38
2022-10-26T16:42:16.030Z,12.80
2022-10-26T16:44:43.138Z,16.85
2022-10-26T16:47:10.328Z,13.93
2022-10-26T16:49:38.621Z,14.30
2022-10-26T16:52:05.758Z,18.27
2022-10-26T16:54:32.922Z,17.08
2022-10-26T16:57:00.054Z,16.80
2022-10-26T16:59:27.398Z,16.80
2022-10-26T17:01:54.707Z,18.63
2022-10-26T17:04:21.938Z,17.17
2022-10-26T17:06:49.096Z,18.25
2022-10-26T17:09:16.242Z,18.38
2022-10-26T17:11:43.360Z,15.75
2022-10-26T17:14:11.853Z,13.43
2022-10-26T17:16:38.976Z,14.60
2022-10-26T17:19:06.137Z,15.27
2022-10-26T17:21:34.548Z,15.82
2022-10-26T17:24:02.410Z,15.00
2022-10-26T17:26:29.888Z,14.63
2022-10-26T17:28:58.352Z,15.48
2022-10-26T17:31:26.171Z,17.90
2022-10-26T17:33:53.520Z,18.95
2022-10-26T17:36:21.857Z,17.52
2022-10-26T17:38:50.224Z,17.55
2022-10-26T17:41:18.266Z,16.85
2022-10-26T17:43:45.906Z,14.88
2022-10-26T17:46:20.425Z,13.30
2022-10-26T17:48:47.644Z,17.45
2022-10-26T17:51:16.260Z,15.32
2022-10-26T17:53:43.629Z,15.02
2022-10-26T17:56:11.997Z,16.80
2022-10-26T17:58:39.425Z,14.52
2022-10-26T18:01:11.559Z,14.20
2022-10-26T18:03:39.308Z,18.85
2022-10-26T18:06:10.304Z,16.27
2022-10-26T18:08:38.388Z,15.93
2022-10-26T18:11:06.287Z,15.70
2022-10-26T18:13:34.015Z,13.25
2022-10-26T18:16:11.543Z,14.93
2022-10-26T18:18:39.258Z,17.33
2022-10-26T18:21:10.659Z,11.88
2022-10-26T18:23:38.316Z,18.70
2022-10-26T18:26:15.032Z,16.77
2022-10-26T18:28:42.417Z,15.43
2022-10-26T18:31:11.474Z,15.82
2022-10-26T18:33:38.649Z,15.10
2022-10-26T18:36:09.924Z,15.20
2022-10-26T18:38:37.498Z,14.73
2022-10-26T18:41:05.138Z,13.27
2022-10-26T18:43:32.338Z,13.48
2022-10-26T18:46:05.626Z,16.73
2022-10-26T18:48:32.838Z,18.08
2022-10-26T18:51:04.080Z,12.30
2022-10-26T18:53:32.701Z,14.10
2022-10-26T18:56:03.607Z,18.23
2022-10-26T18:58:34.667Z,13.68
2022-10-26T19:01:22.210Z,14.65
2022-10-26T19:03:53.294Z,13.77
2022-10-26T19:06:22.168Z,12.35
2022-10-26T19:08:49.356Z,14.77
2022-10-26T19:11:17.504Z,14.57
2022-10-26T19:13:44.737Z,13.73
2022-10-26T19:16:17.458Z,15.35
2022-10-26T19:19:00.777Z,16.10
2022-10-26T19:21:28.769Z,14.20
2022-10-26T19:23:57.505Z,12.80
2022-10-26T19:26:29.621Z,15.95
2022-10-26T19:29:03.474Z,14.38
2022-10-26T19:31:33.633Z,17.33
2022-10-26T19:34:01.591Z,14.35
2022-10-26T19:36:32.474Z,14.13
2022-10-26T19:39:00.053Z,15.10
2022-10-26T19:41:28.179Z,15.05
2022-10-26T19:43:55.661Z,15.90
2022-10-26T19:46:24.395Z,13.65
2022-10-26T19:48:52.534Z,21.35
2022-10-26T19:51:19.727Z,15.45
2022-10-26T19:53:46.875Z,19.05
2022-10-26T19:56:14.499Z,22.60
2022-10-26T19:58:42.444Z,15.15
2022-10-26T20:01:10.654Z,13.57
2022-10-26T20:03:38.009Z,22.25
2022-10-26T20:06:08.158Z,17.40
2022-10-26T20:08:36.604Z,24.17
2022-10-26T20:11:04.522Z,18.15
2022-10-26T20:13:31.668Z,18.65
2022-10-26T20:15:58.820Z,20.63
2022-10-26T20:18:26.052Z,14.25
2022-10-26T20:20:53.246Z,17.38
2022-10-26T20:23:20.445Z,14.00
2022-10-26T20:25:48.699Z,17.15
2022-10-26T20:28:16.562Z,17.67
2022-10-26T20:30:44.432Z,17.02
2022-10-26T20:33:11.740Z,17.38
2022-10-26T20:35:39.368Z,17.08
2022-10-26T20:38:09.972Z,14.00
2022-10-26T20:40:37.471Z,15.80
2022-10-26T20:43:04.781Z,17.52
2022-10-26T20:45:32.661Z,20.95
2022-10-26T20:48:00.760Z,17.55
2022-10-26T20:50:29.000Z,18.42
2022-10-26T20:53:05.342Z,15.63
2022-10-26T20:55:54.419Z,16.35
2022-10-26T20:58:26.447Z,12.65
2022-10-26T21:00:59.070Z,22.10
2022-10-26T21:03:26.269Z,18.48
2022-10-26T21:05:53.431Z,18.00
2022-10-26T21:08:21.106Z,19.42
2022-10-26T21:10:50.279Z,16.25
2022-10-26T21:13:17.912Z,15.52
2022-10-26T21:15:45.094Z,17.98
2022-10-26T21:18:12.250Z,14.75
2022-10-26T21:20:39.601Z,13.80
2022-10-26T21:23:06.729Z,14.60
2022-10-26T21:25:36.374Z,17.45
2022-10-26T21:28:03.927Z,13.63
2022-10-26T21:30:31.160Z,15.43
2022-10-26T21:32:58.338Z,13.32
2022-10-26T21:35:25.676Z,17.80
2022-10-26T21:37:53.068Z,13.98
2022-10-26T21:40:20.422Z,15.75
2022-10-26T21:42:51.441Z,12.30
2022-10-26T21:45:19.293Z,12.50
2022-10-26T21:47:46.480Z,11.90
2022-10-26T21:50:13.610Z,12.55
2022-10-26T21:52:40.749Z,15.93
2022-10-26T21:55:08.105Z,13.63
2022-10-26T21:57:35.252Z,20.15
2022-10-26T22:00:02.506Z,13.52
2022-10-26T22:02:29.711Z,14.35
2022-10-26T22:04:57.002Z,16.58
2022-10-26T22:07:24.250Z,12.55
2022-10-26T22:10:07.852Z,14.30
2022-10-26T22:12:37.092Z,17.02
2022-10-26T22:15:04.648Z,17.23
2022-10-26T22:17:31.795Z,12.88
2022-10-26T22:19:58.925Z,15.10
2022-10-26T22:22:26.076Z,13.27
2022-10-26T22:24:53.253Z,12.27
2022-10-26T22:27:20.408Z,17.65
2022-10-26T22:29:47.591Z,16.75
2022-10-26T22:32:14.751Z,15.25
2022-10-26T22:34:41.898Z,11.02
2022-10-26T22:37:09.033Z,13.10
2022-10-26T22:39:36.197Z,14.05
2022-10-26T22:42:03.401Z,12.25
2022-10-26T22:44:30.538Z,14.80
2022-10-26T22:46:59.256Z,12.90
2022-10-26T22:49:26.455Z,14.05
2022-10-26T22:51:53.574Z,14.98
2022-10-26T22:54:20.721Z,10.68
2022-10-26T22:56:47.848Z,12.95
2022-10-26T22:59:14.995Z,13.20
2022-10-26T23:01:42.466Z,11.52
2022-10-26T23:04:11.736Z,15.57
2022-10-26T23:06:39.205Z,11.45
2022-10-26T23:09:06.964Z,13.75
2022-10-26T23:11:34.150Z,12.40
2022-10-26T23:14:02.460Z,12.20
2022-10-26T23:16:30.224Z,11.20
2022-10-26T23:18:58.314Z,10.55
2022-10-26T23:23:57.827Z,10.82
2022-10-26T23:26:25.217Z,10.38
2022-10-26T23:28:52.402Z,10.75
2022-10-26T23:31:21.532Z,10.23
2022-10-26T23:33:51.276Z,9.63
2022-10-26T23:36:18.693Z,11.90
2022-10-26T23:38:45.973Z,9.57
2022-10-26T23:41:13.375Z,9.30
2022-10-26T23:43:40.897Z,11.15
2022-10-26T23:46:08.149Z,9.82
2022-10-26T23:48:35.322Z,9.82
2022-10-26T23:51:02.475Z,10.13
2022-10-26T23:53:29.637Z,11.10
2022-10-26T23:55:56.839Z,9.45
2022-10-26T23:58:24.002Z,9.98
